»·PEaware :: N733EJ KSBP-KSBP

N733EJ :: KSBP-KSBP

FLIGHT INFORMATION

Flight Status: Arrived
Operator: Privately registered:
United States
More flights under this callsign
Pilot: Logan D. (20254)
Aircraft: CESSNA 172 SKYHAWK
(C172)
More flights by this aircraft type
Origin: KSBP San Luis Co Regl
United States
Destination: KSBP San Luis Co Regl
United States
More flights between these airports :: More routes between these airports
Route:
File this flight plan on PilotEdge
Remarks: +CW / PATTERN WORK
Altitude:
(Current/Filed)
1,000ft
Speed:
(Current/Filed)
110kts
Departed: 21-Oct-19 04:20 PM
Arrived: 21-Oct-19 04:36 PM
Distance/Time
Traveled:
0nm/0:16
Distance/Time
To Go:
Arrived

Flight Plot

Page will automatically refresh every two minutes.


Map Options




Map Legend


Flown Route
Filed Route
Departure Airport
Arrival Airport
Navaid (VOR, NDB)
Fix

Horizontal Profiles

Position Reports

Time Latitude Longitude Heading Altitude Ground
Speed
21-Oct-19 15:46 35.240041 -120.642541 126 216ft 0kts
21-Oct-19 15:47 35.240041 -120.642541 126 216ft 0kts
21-Oct-19 15:48 35.240041 -120.642541 126 216ft 0kts
21-Oct-19 15:49 35.240041 -120.642541 126 216ft 0kts
21-Oct-19 15:50 35.240041 -120.642541 126 216ft 0kts
21-Oct-19 15:51 35.240041 -120.642541 126 216ft 0kts
21-Oct-19 15:52 35.240041 -120.642541 126 216ft 0kts
21-Oct-19 15:53 35.240041 -120.642541 126 216ft 0kts
21-Oct-19 15:54 35.240041 -120.642541 126 216ft 0kts
21-Oct-19 15:55 35.240041 -120.642541 126 216ft 0kts
21-Oct-19 15:56 35.240041 -120.642541 126 216ft 0kts
21-Oct-19 15:57 35.240041 -120.642541 126 216ft 0kts
21-Oct-19 15:58 35.240041 -120.642541 124 216ft 0kts
21-Oct-19 15:59 35.240041 -120.642541 124 216ft 0kts
21-Oct-19 16:00 35.240041 -120.642541 124 216ft 0kts
21-Oct-19 16:01 35.240040 -120.642541 124 216ft 0kts
21-Oct-19 16:02 35.240040 -120.642541 124 216ft 0kts
21-Oct-19 16:03 35.240040 -120.642541 124 216ft 0kts
21-Oct-19 16:04 35.240040 -120.642541 124 216ft 0kts
21-Oct-19 16:05 35.240041 -120.642541 124 216ft 0kts
21-Oct-19 16:06 35.240040 -120.642541 124 216ft 0kts
21-Oct-19 16:07 35.240041 -120.642541 124 216ft 0kts
21-Oct-19 16:08 35.240040 -120.642541 124 216ft 0kts
21-Oct-19 16:09 35.240041 -120.642541 124 216ft 0kts
21-Oct-19 16:10 35.240040 -120.642541 124 216ft 0kts
21-Oct-19 16:11 35.240040 -120.642541 124 216ft 0kts
21-Oct-19 16:12 35.239140 -120.642407 136 216ft 10kts
21-Oct-19 16:13 35.236719 -120.637952 118 216ft 19kts
21-Oct-19 16:14 35.234180 -120.633553 123 216ft 13kts
21-Oct-19 16:15 35.233177 -120.632363 207 216ft 0kts
21-Oct-19 16:16 35.233171 -120.632367 208 216ft 0kts
21-Oct-19 16:17 35.233171 -120.632367 208 216ft 0kts
21-Oct-19 16:18 35.232840 -120.633119 301 216ft 0kts
21-Oct-19 16:20 35.238261 -120.643091 308 258ft 69kts
21-Oct-19 16:21 35.249002 -120.664066 305 911ft 78kts
21-Oct-19 16:22 35.267450 -120.663245 36 1459ft 96kts
21-Oct-19 16:23 35.264316 -120.632118 120 1704ft 118kts
21-Oct-19 16:24 35.246045 -120.599999 119 1883ft 109kts
21-Oct-19 16:25 35.220871 -120.580889 217 1680ft 133kts
21-Oct-19 16:26 35.219879 -120.610659 307 949ft 93kts
21-Oct-19 16:27 35.235359 -120.637867 309 224ft 86kts
21-Oct-19 16:28 35.248294 -120.663161 300 813ft 87kts
21-Oct-19 16:29 35.269154 -120.669779 22 1303ft 99kts
21-Oct-19 16:30 35.270965 -120.639921 132 1518ft 132kts
21-Oct-19 16:31 35.245371 -120.608452 126 1809ft 125kts
21-Oct-19 16:32 35.224076 -120.574555 122 2091ft 127kts
21-Oct-19 16:33 35.207695 -120.589959 305 1380ft 110kts
21-Oct-19 16:34 35.224478 -120.618474 309 794ft 95kts
21-Oct-19 16:35 35.238104 -120.642305 306 216ft 41kts
21-Oct-19 16:36 35.239824 -120.644084 26 216ft 0kts
21-Oct-19 16:37 35.239882 -120.643254 41 216ft 13kts
21-Oct-19 16:37 35.240005 -120.642646 123 216ft 0kts
21-Oct-19 16:39 35.240005 -120.642646 121 216ft 0kts
21-Oct-19 16:40 35.240005 -120.642646 121 216ft 0kts
21-Oct-19 16:40 35.240005 -120.642646 120 216ft 0kts
21-Oct-19 16:41 35.240005 -120.642647 117 216ft 0kts

Navigation Log

Ident Type
Flight plan parsing failed, navigation log unavailable